createdAt,value
2018-11-25T00:00:38.292Z,0
2018-11-25T00:01:38.816Z,0
2018-11-25T00:02:38.851Z,0
2018-11-25T00:03:38.878Z,0
2018-11-25T00:04:38.884Z,0
2018-11-25T00:05:38.378Z,0
2018-11-25T00:06:38.932Z,0
2018-11-25T00:07:43.633Z,0
2018-11-25T00:08:39.223Z,0
2018-11-25T00:09:38.962Z,0
2018-11-25T00:10:39.274Z,0
2018-11-25T00:11:38.741Z,0
2018-11-25T00:12:38.766Z,0
2018-11-25T00:13:38.786Z,0
2018-11-25T00:14:39.068Z,0
2018-11-25T00:15:39.091Z,0
2018-11-25T00:16:39.351Z,0
2018-11-25T00:17:38.601Z,0
2018-11-25T00:18:38.879Z,0
2018-11-25T00:19:38.892Z,0
2018-11-25T00:20:39.428Z,0
2018-11-25T00:21:39.190Z,0
2018-11-25T00:22:38.941Z,0
2018-11-25T00:23:38.963Z,0
2018-11-25T00:24:39.488Z,0
2018-11-25T00:25:38.732Z,0
2018-11-25T00:26:39.042Z,0
2018-11-25T00:27:39.291Z,0
2018-11-25T00:28:39.067Z,0
2018-11-25T00:29:39.347Z,0
2018-11-25T00:30:39.378Z,0
2018-11-25T00:31:39.107Z,0
2018-11-25T00:32:39.392Z,0
2018-11-25T00:33:39.168Z,0
2018-11-25T00:34:39.157Z,0
2018-11-25T00:35:39.428Z,0
2018-11-25T00:36:39.206Z,0
2018-11-25T00:37:39.226Z,0
2018-11-25T00:38:39.575Z,0
2018-11-25T00:39:39.517Z,0
2018-11-25T00:40:39.532Z,0
2018-11-25T00:41:39.298Z,0
2018-11-25T00:42:39.855Z,0
2018-11-25T00:43:39.848Z,0
2018-11-25T00:44:39.338Z,0
2018-11-25T00:45:39.899Z,0
2018-11-25T00:46:39.641Z,0
2018-11-25T00:47:39.900Z,0
2018-11-25T00:48:39.688Z,0
2018-11-25T00:49:39.698Z,0
2018-11-25T00:50:39.707Z,0
2018-11-25T00:51:39.974Z,0
2018-11-25T00:52:39.762Z,0
2018-11-25T00:53:39.760Z,0
2018-11-25T00:54:40.321Z,0
2018-11-25T00:55:39.796Z,0
2018-11-25T00:56:39.810Z,0
2018-11-25T00:57:39.575Z,0
2018-11-25T00:58:39.591Z,0
2018-11-25T00:59:40.404Z,0
2018-11-25T01:00:39.892Z,0
2018-11-25T01:01:39.659Z,0
2018-11-25T01:02:39.666Z,0
2018-11-25T01:03:39.678Z,0
2018-11-25T01:04:39.975Z,0
2018-11-25T01:05:39.991Z,0
2018-11-25T01:06:40.257Z,0
2018-11-25T01:07:40.016Z,0
2018-11-25T01:08:40.047Z,0
2018-11-25T01:09:39.802Z,0
2018-11-25T01:10:39.838Z,0
2018-11-25T01:11:40.081Z,0
2018-11-25T01:12:40.365Z,0
2018-11-25T01:13:39.882Z,0
2018-11-25T01:14:40.424Z,0
2018-11-25T01:15:40.424Z,0
2018-11-25T01:16:40.191Z,0
2018-11-25T01:17:39.937Z,0
2018-11-25T01:18:40.213Z,0
2018-11-25T01:19:40.245Z,0
2018-11-25T01:20:40.247Z,0
2018-11-25T01:21:40.255Z,0
2018-11-25T01:22:40.814Z,0
2018-11-25T01:23:40.310Z,0
2018-11-25T01:24:40.312Z,0
2018-11-25T01:25:40.606Z,0
2018-11-25T01:26:40.112Z,0
2018-11-25T01:27:39.865Z,0
2018-11-25T01:28:40.403Z,0
2018-11-25T01:29:40.419Z,0
2018-11-25T01:30:40.170Z,0
2018-11-25T01:31:39.943Z,0
2018-11-25T01:32:40.478Z,0
2018-11-25T01:33:40.229Z,0
2018-11-25T01:34:40.507Z,0
2018-11-25T01:35:41.068Z,0
2018-11-25T01:36:40.296Z,0
2018-11-25T01:37:40.306Z,0
2018-11-25T01:38:40.577Z,0
2018-11-25T01:39:40.593Z,0
2018-11-25T01:40:40.349Z,0
2018-11-25T01:41:40.109Z,0
2018-11-25T01:42:40.689Z,0
2018-11-25T01:43:40.415Z,0
2018-11-25T01:44:40.690Z,0
2018-11-25T01:45:40.440Z,0
2018-11-25T01:46:40.725Z,0
2018-11-25T01:47:40.522Z,0
2018-11-25T01:48:40.762Z,0
2018-11-25T01:49:41.308Z,0
2018-11-25T01:50:41.303Z,0
2018-11-25T01:51:40.575Z,0
2018-11-25T01:52:41.092Z,0
2018-11-25T01:53:40.586Z,0
2018-11-25T01:54:41.135Z,0
2018-11-25T01:55:41.149Z,0
2018-11-25T01:56:40.635Z,0
2018-11-25T01:57:40.403Z,0
2018-11-25T01:58:40.694Z,0
2018-11-25T01:59:41.225Z,0
2018-11-25T02:00:40.717Z,0
2018-11-25T02:01:41.279Z,0
2018-11-25T02:02:40.757Z,0
2018-11-25T02:03:41.027Z,0
2018-11-25T02:04:41.578Z,0
2018-11-25T02:05:41.350Z,0
2018-11-25T02:06:41.103Z,0
2018-11-25T02:07:41.106Z,0
2018-11-25T02:08:40.666Z,0
2018-11-25T02:09:41.137Z,0
2018-11-25T02:10:40.914Z,0
2018-11-25T02:11:40.668Z,0
2018-11-25T02:12:41.475Z,0
2018-11-25T02:13:41.476Z,0
2018-11-25T02:14:41.238Z,0
2018-11-25T02:15:40.742Z,0
2018-11-25T02:16:41.259Z,0
2018-11-25T02:17:41.025Z,0
2018-11-25T02:18:41.554Z,0
2018-11-25T02:19:41.591Z,0
2018-11-25T02:20:41.362Z,0
2018-11-25T02:21:41.097Z,0
2018-11-25T02:22:41.137Z,0
2018-11-25T02:23:41.679Z,0
2018-11-25T02:24:41.408Z,0
2018-11-25T02:25:41.437Z,0
2018-11-25T02:26:41.430Z,0
2018-11-25T02:27:41.205Z,0
2018-11-25T02:28:41.233Z,0
2018-11-25T02:29:41.506Z,0
2018-11-25T02:30:41.012Z,0
2018-11-25T02:31:41.795Z,0
2018-11-25T02:32:42.079Z,0
2018-11-25T02:33:41.309Z,0
2018-11-25T02:34:41.854Z,0
2018-11-25T02:35:41.356Z,0
2018-11-25T02:36:41.653Z,0
2018-11-25T02:37:41.631Z,0
2018-11-25T02:38:41.394Z,0
2018-11-25T02:39:41.943Z,0
2018-11-25T02:40:41.187Z,0
2018-11-25T02:41:41.458Z,0
2018-11-25T02:42:41.484Z,0
2018-11-25T02:43:41.503Z,0
2018-11-25T02:44:41.515Z,0
2018-11-25T02:45:41.533Z,0
2018-11-25T02:46:42.064Z,0
2018-11-25T02:47:41.306Z,0
2018-11-25T02:48:41.328Z,0
2018-11-25T02:49:42.143Z,0
2018-11-25T02:50:41.889Z,0
2018-11-25T02:51:41.896Z,0
2018-11-25T02:52:41.940Z,0
2018-11-25T02:53:42.201Z,0
2018-11-25T02:54:41.957Z,0
2018-11-25T02:55:41.961Z,0
2018-11-25T02:56:41.723Z,0
2018-11-25T02:57:41.490Z,0
2018-11-25T02:58:41.779Z,0
2018-11-25T02:59:42.049Z,0
2018-11-25T03:00:42.056Z,0
2018-11-25T03:01:41.820Z,0
2018-11-25T03:02:42.112Z,0
2018-11-25T03:03:41.859Z,0
2018-11-25T03:04:41.874Z,0
2018-11-25T03:05:41.899Z,0
2018-11-25T03:06:42.458Z,0
2018-11-25T03:07:42.200Z,0
2018-11-25T03:08:41.960Z,0
2018-11-25T03:09:41.718Z,0
2018-11-25T03:10:42.266Z,0
2018-11-25T03:11:41.997Z,0
2018-11-25T03:12:42.802Z,0
2018-11-25T03:13:42.566Z,0
2018-11-25T03:14:42.614Z,0
2018-11-25T03:15:42.589Z,0
2018-11-25T03:16:42.102Z,0
2018-11-25T03:17:42.641Z,0
2018-11-25T03:18:42.926Z,0
2018-11-25T03:19:42.687Z,0
2018-11-25T03:20:42.176Z,0
2018-11-25T03:21:42.197Z,0
2018-11-25T03:22:42.197Z,0
2018-11-25T03:23:42.218Z,0
2018-11-25T03:24:42.239Z,0
2018-11-25T03:25:42.005Z,0
2018-11-25T03:26:42.019Z,0
2018-11-25T03:27:42.547Z,0
2018-11-25T03:28:42.601Z,0
2018-11-25T03:29:42.598Z,0
2018-11-25T03:30:42.343Z,0
2018-11-25T03:31:42.901Z,0
2018-11-25T03:32:42.895Z,0
2018-11-25T03:33:42.430Z,0
2018-11-25T03:34:42.424Z,0
2018-11-25T03:35:42.709Z,0
2018-11-25T03:36:42.981Z,0
2018-11-25T03:37:42.739Z,0
2018-11-25T03:38:42.799Z,0
2018-11-25T03:39:43.040Z,0
2018-11-25T03:40:43.057Z,0
2018-11-25T03:41:42.289Z,0
2018-11-25T03:42:42.565Z,0
2018-11-25T03:43:42.595Z,0
2018-11-25T03:44:42.854Z,0
2018-11-25T03:45:42.627Z,0
2018-11-25T03:46:42.648Z,0
2018-11-25T03:47:43.188Z,0
2018-11-25T03:48:43.441Z,0
2018-11-25T03:49:42.969Z,0
2018-11-25T03:50:42.986Z,0
2018-11-25T03:51:42.728Z,0
2018-11-25T03:52:42.764Z,0
2018-11-25T03:53:42.766Z,0
2018-11-25T03:54:43.315Z,0
2018-11-25T03:55:43.327Z,0
2018-11-25T03:56:43.087Z,0
2018-11-25T03:57:42.579Z,0
2018-11-25T03:58:43.372Z,0
2018-11-25T03:59:43.400Z,0
2018-11-25T04:00:42.894Z,0
2018-11-25T04:01:43.186Z,0
2018-11-25T04:02:42.995Z,0
2018-11-25T04:03:43.199Z,0
2018-11-25T04:04:43.481Z,0
2018-11-25T04:05:43.259Z,0
2018-11-25T04:06:43.269Z,0
2018-11-25T04:07:43.017Z,0
2018-11-25T04:08:43.044Z,0
2018-11-25T04:09:43.327Z,0
2018-11-25T04:10:43.847Z,0
2018-11-25T04:11:43.612Z,0
2018-11-25T04:12:43.632Z,0
2018-11-25T04:13:43.395Z,0
2018-11-25T04:14:43.406Z,0
2018-11-25T04:15:43.431Z,0
2018-11-25T04:16:43.447Z,0
2018-11-25T04:17:42.937Z,0
2018-11-25T04:18:43.531Z,0
2018-11-25T04:19:42.984Z,0
2018-11-25T04:20:43.590Z,0
2018-11-25T04:21:43.036Z,0
2018-11-25T04:22:43.301Z,0
2018-11-25T04:23:43.839Z,0
2018-11-25T04:24:44.094Z,0
2018-11-25T04:25:43.612Z,0
2018-11-25T04:26:43.637Z,0
2018-11-25T04:27:43.390Z,0
2018-11-25T04:28:43.661Z,0
2018-11-25T04:29:43.155Z,0
2018-11-25T04:30:43.166Z,0
2018-11-25T04:31:43.740Z,0
2018-11-25T04:32:43.485Z,0
2018-11-25T04:33:43.736Z,0
2018-11-25T04:34:44.286Z,0
2018-11-25T04:35:43.529Z,0
2018-11-25T04:36:43.546Z,0
2018-11-25T04:37:43.564Z,0
2018-11-25T04:38:43.597Z,0
2018-11-25T04:39:44.122Z,0
2018-11-25T04:40:43.881Z,0
2018-11-25T04:41:43.898Z,0
2018-11-25T04:42:43.666Z,0
2018-11-25T04:43:44.212Z,0
2018-11-25T04:44:43.962Z,0
2018-11-25T04:45:44.251Z,0
2018-11-25T04:46:44.005Z,0
2018-11-25T04:47:44.283Z,0
2018-11-25T04:48:43.773Z,0
2018-11-25T04:49:43.525Z,0
2018-11-25T04:50:44.082Z,0
2018-11-25T04:51:44.083Z,0
2018-11-25T04:52:44.381Z,0
2018-11-25T04:53:44.380Z,0
2018-11-25T04:54:44.157Z,0
2018-11-25T04:55:43.635Z,0
2018-11-25T04:56:43.912Z,0
2018-11-25T04:57:43.943Z,0
2018-11-25T04:58:43.708Z,0
2018-11-25T04:59:43.961Z,0
2018-11-25T05:00:43.988Z,0
2018-11-25T05:01:44.795Z,0
2018-11-25T05:02:44.025Z,0
2018-11-25T05:03:43.788Z,0
2018-11-25T05:04:43.803Z,0
2018-11-25T05:05:44.089Z,0
2018-11-25T05:06:44.616Z,0
2018-11-25T05:07:44.144Z,0
2018-11-25T05:08:44.416Z,0
2018-11-25T05:09:44.668Z,0
2018-11-25T05:10:44.172Z,0
2018-11-25T05:11:44.963Z,0
2018-11-25T05:12:44.753Z,0
2018-11-25T05:13:44.493Z,0
2018-11-25T05:14:44.510Z,0
2018-11-25T05:15:44.517Z,0
2018-11-25T05:16:44.268Z,0
2018-11-25T05:17:44.543Z,0
2018-11-25T05:18:44.299Z,0
2018-11-25T05:19:44.326Z,0
2018-11-25T05:20:44.880Z,0
2018-11-25T05:21:44.884Z,0
2018-11-25T05:22:44.898Z,0
2018-11-25T05:23:44.645Z,0
2018-11-25T05:24:44.173Z,0
2018-11-25T05:25:44.691Z,0
2018-11-25T05:26:44.963Z,0
2018-11-25T05:27:45.026Z,0
2018-11-25T05:28:44.524Z,0
2018-11-25T05:29:44.508Z,0
2018-11-25T05:30:45.039Z,0
2018-11-25T05:31:44.811Z,0
2018-11-25T05:32:44.812Z,0
2018-11-25T05:33:44.857Z,0
2018-11-25T05:34:44.859Z,0
2018-11-25T05:35:44.635Z,0
2018-11-25T05:36:44.901Z,0
2018-11-25T05:37:45.172Z,0
2018-11-25T05:38:45.189Z,0
2018-11-25T05:39:44.945Z,0
2018-11-25T05:40:44.454Z,0
2018-11-25T05:41:45.045Z,0
2018-11-25T05:42:45.530Z,0
2018-11-25T05:43:44.826Z,0
2018-11-25T05:44:44.801Z,0
2018-11-25T05:45:45.320Z,0
2018-11-25T05:46:45.080Z,0
2018-11-25T05:47:44.827Z,0
2018-11-25T05:48:44.605Z,0
2018-11-25T05:49:46.010Z,0
2018-11-25T05:50:44.944Z,0
2018-11-25T05:51:44.913Z,0
2018-11-25T05:52:44.957Z,0
2018-11-25T05:53:45.219Z,0
2018-11-25T05:54:44.965Z,0
2018-11-25T05:55:45.234Z,0
2018-11-25T05:56:45.280Z,0
2018-11-25T05:57:45.048Z,0
2018-11-25T05:58:45.557Z,0
2018-11-25T05:59:45.835Z,0
2018-11-25T06:00:44.813Z,0
2018-11-25T06:01:45.867Z,0
2018-11-25T06:02:45.396Z,0
2018-11-25T06:03:45.638Z,0
2018-11-25T06:04:45.414Z,0
2018-11-25T06:05:45.697Z,0
2018-11-25T06:06:45.445Z,0
2018-11-25T06:07:45.482Z,0
2018-11-25T06:08:45.724Z,0
2018-11-25T06:09:45.765Z,0
2018-11-25T06:10:45.761Z,0
2018-11-25T06:11:45.266Z,0
2018-11-25T06:12:45.817Z,0
2018-11-25T06:13:45.299Z,0
2018-11-25T06:14:45.077Z,0
2018-11-25T06:15:45.611Z,0
2018-11-25T06:16:45.635Z,0
2018-11-25T06:17:45.920Z,0
2018-11-25T06:18:45.684Z,0
2018-11-25T06:19:45.683Z,0
2018-11-25T06:20:45.168Z,0
2018-11-25T06:21:45.989Z,0
2018-11-25T06:22:45.480Z,0
2018-11-25T06:23:45.745Z,0
2018-11-25T06:24:45.516Z,0
2018-11-25T06:25:45.824Z,0
2018-11-25T06:26:45.808Z,0
2018-11-25T06:27:47.615Z,0
2018-11-25T06:28:45.579Z,0
2018-11-25T06:29:45.855Z,0
2018-11-25T06:30:45.882Z,0
2018-11-25T06:31:45.375Z,0
2018-11-25T06:32:45.909Z,0
2018-11-25T06:33:46.191Z,0
2018-11-25T06:34:45.437Z,0
2018-11-25T06:35:46.224Z,0
2018-11-25T06:36:45.987Z,0
2018-11-25T06:37:46.289Z,0
2018-11-25T06:38:45.773Z,0
2018-11-25T06:39:45.534Z,0
2018-11-25T06:40:45.792Z,0
2018-11-25T06:41:46.087Z,0
2018-11-25T06:42:46.109Z,0
2018-11-25T06:43:46.118Z,0
2018-11-25T06:44:45.912Z,0
2018-11-25T06:45:46.417Z,0
2018-11-25T06:46:45.908Z,0
2018-11-25T06:47:46.435Z,0
2018-11-25T06:48:45.954Z,0
2018-11-25T06:49:46.229Z,0
2018-11-25T06:50:45.728Z,0
2018-11-25T06:51:46.258Z,0
2018-11-25T06:52:46.024Z,0
2018-11-25T06:53:46.585Z,0
2018-11-25T06:54:46.824Z,0
2018-11-25T06:55:46.337Z,0
2018-11-25T06:56:46.110Z,0
2018-11-25T06:57:46.132Z,0
2018-11-25T06:58:46.406Z,0
2018-11-25T06:59:45.886Z,0
2018-11-25T07:00:46.165Z,0
2018-11-25T07:01:46.705Z,0
2018-11-25T07:02:46.715Z,0
2018-11-25T07:03:46.513Z,0
2018-11-25T07:04:46.775Z,0
2018-11-25T07:05:46.539Z,0
2018-11-25T07:06:46.526Z,0
2018-11-25T07:07:46.557Z,0
2018-11-25T07:08:47.100Z,0
2018-11-25T07:09:46.605Z,0
2018-11-25T07:10:46.872Z,0
2018-11-25T07:11:46.430Z,0
2018-11-25T07:12:46.919Z,0
2018-11-25T07:13:46.649Z,0
2018-11-25T07:14:46.674Z,0
2018-11-25T07:15:46.963Z,0
2018-11-25T07:16:46.478Z,0
2018-11-25T07:17:46.484Z,0
2018-11-25T07:18:47.000Z,0
2018-11-25T07:19:47.032Z,0
2018-11-25T07:20:46.529Z,0
2018-11-25T07:21:46.818Z,0
2018-11-25T07:22:47.153Z,0
2018-11-25T07:23:46.908Z,0
2018-11-25T07:24:46.603Z,0
2018-11-25T07:25:46.360Z,0
2018-11-25T07:26:46.647Z,0
2018-11-25T07:27:46.923Z,0
2018-11-25T07:28:46.934Z,0
2018-11-25T07:29:46.950Z,0
2018-11-25T07:30:46.701Z,0
2018-11-25T07:31:46.986Z,0
2018-11-25T07:32:47.010Z,0
2018-11-25T07:33:47.024Z,0
2018-11-25T07:34:46.777Z,0
2018-11-25T07:35:46.796Z,0
2018-11-25T07:36:46.808Z,0
2018-11-25T07:37:46.873Z,0
2018-11-25T07:38:47.371Z,0
2018-11-25T07:39:47.150Z,0
2018-11-25T07:40:46.886Z,0
2018-11-25T07:41:47.181Z,0
2018-11-25T07:42:47.205Z,0
2018-11-25T07:43:46.943Z,0
2018-11-25T07:44:46.704Z,0
2018-11-25T07:45:46.721Z,0
2018-11-25T07:46:47.284Z,0
2018-11-25T07:47:47.529Z,0
2018-11-25T07:48:46.784Z,0
2018-11-25T07:49:47.321Z,0
2018-11-25T07:50:47.063Z,0
2018-11-25T07:51:47.611Z,0
2018-11-25T07:52:47.370Z,0
2018-11-25T07:53:47.656Z,0
2018-11-25T07:54:47.420Z,0
2018-11-25T07:55:47.431Z,0
2018-11-25T07:56:47.438Z,0
2018-11-25T07:57:47.489Z,0
2018-11-25T07:58:47.465Z,0
2018-11-25T07:59:47.500Z,0
2018-11-25T08:00:47.514Z,0
2018-11-25T08:01:47.825Z,0
2018-11-25T08:02:51.166Z,0
2018-11-25T08:03:47.844Z,0
2018-11-25T08:04:47.340Z,0
2018-11-25T08:05:47.883Z,0
2018-11-25T08:06:47.622Z,0
2018-11-25T08:07:47.132Z,0
2018-11-25T08:08:47.679Z,0
2018-11-25T08:09:47.421Z,0
2018-11-25T08:10:47.966Z,0
2018-11-25T08:11:48.227Z,0
2018-11-25T08:12:48.003Z,0
2018-11-25T08:13:47.227Z,0
2018-11-25T08:14:47.252Z,5
2018-11-25T08:15:47.278Z,5
2018-11-25T08:16:47.819Z,5
2018-11-25T08:17:47.328Z,5
2018-11-25T08:18:47.327Z,5
2018-11-25T08:19:47.849Z,5
2018-11-25T08:20:47.653Z,5
2018-11-25T08:21:48.162Z,5
2018-11-25T08:22:48.196Z,5
2018-11-25T08:23:47.676Z,5
2018-11-25T08:24:47.690Z,5
2018-11-25T08:25:48.273Z,5
2018-11-25T08:26:47.731Z,5
2018-11-25T08:27:48.276Z,5
2018-11-25T08:28:47.772Z,5
2018-11-25T08:29:48.556Z,5
2018-11-25T08:30:47.813Z,5
2018-11-25T08:31:48.090Z,5
2018-11-25T08:32:48.367Z,5
2018-11-25T08:33:48.180Z,5
2018-11-25T08:34:47.878Z,5
2018-11-25T08:35:47.899Z,5
2018-11-25T08:36:48.183Z,5
2018-11-25T08:37:48.446Z,5
2018-11-25T08:38:48.466Z,5
2018-11-25T08:39:48.503Z,5
2018-11-25T08:40:48.246Z,5
2018-11-25T08:41:48.522Z,5
2018-11-25T08:42:48.285Z,5
2018-11-25T08:43:48.302Z,5
2018-11-25T08:44:48.313Z,5
2018-11-25T08:45:48.061Z,5
2018-11-25T08:46:48.617Z,10
2018-11-25T08:47:48.371Z,5
2018-11-25T08:48:48.142Z,5
2018-11-25T08:49:48.407Z,5
2018-11-25T08:50:48.160Z,5
2018-11-25T08:51:48.294Z,10
2018-11-25T08:52:48.704Z,10
2018-11-25T08:53:48.475Z,10
2018-11-25T08:54:47.977Z,10
2018-11-25T08:55:48.252Z,10
2018-11-25T08:56:48.032Z,10
2018-11-25T08:57:48.831Z,10
2018-11-25T08:58:48.310Z,10
2018-11-25T08:59:48.842Z,10
2018-11-25T09:00:48.855Z,10
2018-11-25T09:01:48.358Z,10
2018-11-25T09:02:48.375Z,10
2018-11-25T09:03:48.407Z,10
2018-11-25T09:04:48.939Z,10
2018-11-25T09:05:48.437Z,10
2018-11-25T09:06:48.711Z,10
2018-11-25T09:07:48.509Z,10
2018-11-25T09:08:48.357Z,10
2018-11-25T09:09:48.866Z,10
2018-11-25T09:10:49.318Z,10
2018-11-25T09:11:49.082Z,10
2018-11-25T09:12:57.280Z,15
2018-11-25T09:13:48.587Z,15
2018-11-25T09:14:49.122Z,15
2018-11-25T09:15:48.620Z,15
2018-11-25T09:16:48.385Z,15
2018-11-25T09:17:48.662Z,15
2018-11-25T09:18:49.202Z,15
2018-11-25T09:19:48.689Z,20
2018-11-25T09:20:49.242Z,20
2018-11-25T09:21:48.987Z,20
2018-11-25T09:22:49.271Z,25
2018-11-25T09:23:49.029Z,25
2018-11-25T09:24:49.577Z,30
2018-11-25T09:25:48.540Z,30
2018-11-25T09:26:48.555Z,30
2018-11-25T09:27:49.360Z,30
2018-11-25T09:28:49.126Z,30
2018-11-25T09:29:48.611Z,30
2018-11-25T09:30:49.176Z,35
2018-11-25T09:31:49.174Z,35
2018-11-25T09:32:48.915Z,35
2018-11-25T09:33:49.455Z,35
2018-11-25T09:34:49.562Z,35
2018-11-25T09:35:49.273Z,40
2018-11-25T09:36:49.005Z,35
2018-11-25T09:37:48.769Z,35
2018-11-25T09:38:49.045Z,30
2018-11-25T09:39:49.059Z,35
2018-11-25T09:40:49.719Z,35
2018-11-25T09:41:49.605Z,35
2018-11-25T09:42:49.361Z,35
2018-11-25T09:43:49.116Z,35
2018-11-25T09:44:49.409Z,35
2018-11-25T09:45:49.182Z,40
2018-11-25T09:46:52.153Z,40
2018-11-25T09:47:49.456Z,40
2018-11-25T09:48:48.972Z,40
2018-11-25T09:49:49.493Z,35
2018-11-25T09:50:49.523Z,35
2018-11-25T09:51:49.267Z,35
2018-11-25T09:52:49.569Z,35
2018-11-25T09:53:49.281Z,25
2018-11-25T09:54:49.322Z,20
2018-11-25T09:55:49.621Z,20
2018-11-25T09:56:49.645Z,20
2018-11-25T09:57:49.395Z,20
2018-11-25T09:58:49.659Z,20
2018-11-25T09:59:49.431Z,20
2018-11-25T10:00:49.701Z,20
2018-11-25T10:01:49.472Z,20
2018-11-25T10:02:49.744Z,20
2018-11-25T10:03:49.234Z,20
2018-11-25T10:04:50.288Z,20
2018-11-25T10:05:50.064Z,20
2018-11-25T10:06:49.551Z,20
2018-11-25T10:07:50.079Z,20
2018-11-25T10:08:49.611Z,20
2018-11-25T10:09:49.602Z,20
2018-11-25T10:10:57.155Z,20
2018-11-25T10:11:49.651Z,20
2018-11-25T10:12:49.403Z,20
2018-11-25T10:13:49.956Z,20
2018-11-25T10:14:49.970Z,20
2018-11-25T10:15:50.500Z,20
2018-11-25T10:16:49.743Z,20
2018-11-25T10:17:50.276Z,20
2018-11-25T10:18:49.525Z,20
2018-11-25T10:19:50.059Z,20
2018-11-25T10:20:50.334Z,20
2018-11-25T10:21:50.083Z,20
2018-11-25T10:22:50.109Z,20
2018-11-25T10:23:49.634Z,20
2018-11-25T10:24:50.144Z,20
2018-11-25T10:25:49.907Z,20
2018-11-25T10:26:50.445Z,20
2018-11-25T10:27:49.946Z,20
2018-11-25T10:28:50.020Z,20
2018-11-25T10:29:49.980Z,20
2018-11-25T10:30:50.508Z,20
2018-11-25T10:31:50.271Z,25
2018-11-25T10:32:51.593Z,25
2018-11-25T10:33:50.051Z,20
2018-11-25T10:34:50.070Z,20
2018-11-25T10:35:50.336Z,20
2018-11-25T10:36:50.169Z,20
2018-11-25T10:37:50.643Z,20
2018-11-25T10:38:49.894Z,25
2018-11-25T10:39:50.674Z,25
2018-11-25T10:40:50.434Z,25
2018-11-25T10:41:50.448Z,25
2018-11-25T10:42:49.963Z,25
2018-11-25T10:43:50.483Z,25
2018-11-25T10:44:50.244Z,25
2018-11-25T10:45:50.791Z,25
2018-11-25T10:46:50.299Z,25
2018-11-25T10:47:50.575Z,25
2018-11-25T10:48:51.132Z,25
2018-11-25T10:49:50.369Z,25
2018-11-25T10:50:55.976Z,25
2018-11-25T10:51:50.711Z,25
2018-11-25T10:52:51.188Z,30
2018-11-25T10:53:50.414Z,30
2018-11-25T10:54:50.176Z,30
2018-11-25T10:55:50.452Z,30
2018-11-25T10:56:50.751Z,30
2018-11-25T10:57:50.251Z,30
2018-11-25T10:58:51.027Z,30
2018-11-25T10:59:50.544Z,30
2018-11-25T11:00:50.815Z,30
2018-11-25T11:01:50.875Z,30
2018-11-25T11:02:51.110Z,35
2018-11-25T11:03:50.613Z,35
2018-11-25T11:04:50.880Z,35
2018-11-25T11:05:50.968Z,35
2018-11-25T11:06:50.916Z,30
2018-11-25T11:07:51.211Z,30
2018-11-25T11:08:51.483Z,30
2018-11-25T11:09:51.023Z,30
2018-11-25T11:10:50.476Z,30
2018-11-25T11:11:51.290Z,30
2018-11-25T11:12:51.022Z,30
2018-11-25T11:13:51.056Z,30
2018-11-25T11:14:51.123Z,30
2018-11-25T11:15:51.349Z,30
2018-11-25T11:16:58.384Z,30
2018-11-25T11:17:51.132Z,30
2018-11-25T11:18:51.180Z,30
2018-11-25T11:19:51.164Z,30
2018-11-25T11:20:51.457Z,30
2018-11-25T11:21:51.204Z,30
2018-11-25T11:22:50.700Z,25
2018-11-25T11:23:51.491Z,25
2018-11-25T11:24:51.530Z,25
2018-11-25T11:25:51.029Z,20
2018-11-25T11:26:51.237Z,20
2018-11-25T11:27:51.830Z,20
2018-11-25T11:28:51.117Z,20
2018-11-25T11:29:51.345Z,15
2018-11-25T11:30:51.628Z,15
2018-11-25T11:31:51.122Z,15
2018-11-25T11:32:51.171Z,15
2018-11-25T11:33:51.676Z,15
2018-11-25T11:34:50.944Z,15
2018-11-25T11:35:50.948Z,15
2018-11-25T11:36:51.485Z,15
2018-11-25T11:37:51.232Z,20
2018-11-25T11:38:51.794Z,20
2018-11-25T11:39:51.606Z,20
2018-11-25T11:40:51.296Z,20
2018-11-25T11:41:51.820Z,20
2018-11-25T11:42:51.081Z,15
2018-11-25T11:43:51.881Z,15
2018-11-25T11:44:51.365Z,15
2018-11-25T11:45:51.124Z,15
2018-11-25T11:46:51.931Z,15
2018-11-25T11:47:51.430Z,15
2018-11-25T11:48:51.185Z,15
2018-11-25T11:49:51.983Z,15
2018-11-25T11:50:52.013Z,15
2018-11-25T11:51:51.490Z,15
2018-11-25T11:52:52.034Z,15
2018-11-25T11:53:52.070Z,15
2018-11-25T11:54:51.821Z,15
2018-11-25T11:55:52.348Z,15
2018-11-25T11:56:51.857Z,10
2018-11-25T11:57:51.880Z,10
2018-11-25T11:58:51.367Z,10
2018-11-25T11:59:51.634Z,10
2018-11-25T12:00:51.741Z,10
2018-11-25T12:01:51.695Z,10
2018-11-25T12:02:51.705Z,10
2018-11-25T12:03:52.237Z,10
2018-11-25T12:04:52.012Z,10
2018-11-25T12:05:52.351Z,15
2018-11-25T12:06:52.047Z,15
2018-11-25T12:07:52.566Z,15
2018-11-25T12:08:52.330Z,15
2018-11-25T12:09:52.094Z,15
2018-11-25T12:10:52.104Z,15
2018-11-25T12:11:51.865Z,15
2018-11-25T12:12:52.413Z,15
2018-11-25T12:13:52.433Z,15
2018-11-25T12:14:54.889Z,10
2018-11-25T12:15:51.950Z,10
2018-11-25T12:16:52.474Z,10
2018-11-25T12:17:51.971Z,10
2018-11-25T12:18:52.530Z,10
2018-11-25T12:19:52.536Z,10
2018-11-25T12:20:52.045Z,10
2018-11-25T12:22:00.284Z,10
2018-11-25T12:22:52.337Z,10
2018-11-25T12:23:52.879Z,10
2018-11-25T12:24:52.371Z,10
2018-11-25T12:25:52.182Z,5
2018-11-25T12:26:52.696Z,5
2018-11-25T12:27:52.169Z,5
2018-11-25T12:28:52.722Z,5
2018-11-25T12:29:52.206Z,5
2018-11-25T12:30:52.500Z,5
2018-11-25T12:31:52.514Z,5
2018-11-25T12:32:52.538Z,5
2018-11-25T12:33:52.797Z,5
2018-11-25T12:34:52.037Z,5
2018-11-25T12:35:52.583Z,5
2018-11-25T12:36:53.429Z,5
2018-11-25T12:37:52.107Z,5
2018-11-25T12:38:52.632Z,5
2018-11-25T12:39:52.907Z,5
2018-11-25T12:40:52.667Z,5
2018-11-25T12:41:52.418Z,5
2018-11-25T12:42:52.986Z,5
2018-11-25T12:43:52.721Z,5
2018-11-25T12:44:52.757Z,5
2018-11-25T12:45:52.767Z,5
2018-11-25T12:46:52.509Z,5
2018-11-25T12:47:52.531Z,5
2018-11-25T12:48:52.559Z,5
2018-11-25T12:49:52.571Z,5
2018-11-25T12:50:53.385Z,10
2018-11-25T12:51:52.869Z,10
2018-11-25T12:52:52.897Z,5
2018-11-25T12:53:52.903Z,5
2018-11-25T12:54:52.934Z,5
2018-11-25T12:55:52.964Z,5
2018-11-25T12:57:00.078Z,5
2018-11-25T12:57:52.470Z,5
2018-11-25T12:58:53.010Z,5
2018-11-25T12:59:53.278Z,5
2018-11-25T13:00:53.038Z,5
2018-11-25T13:01:52.534Z,5
2018-11-25T13:02:52.836Z,10
2018-11-25T13:03:53.361Z,10
2018-11-25T13:04:53.103Z,10
2018-11-25T13:05:55.351Z,10
2018-11-25T13:06:52.907Z,10
2018-11-25T13:07:52.907Z,10
2018-11-25T13:08:53.198Z,10
2018-11-25T13:09:53.468Z,10
2018-11-25T13:10:53.227Z,10
2018-11-25T13:11:59.244Z,10
2018-11-25T13:12:52.750Z,10
2018-11-25T13:13:53.023Z,10
2018-11-25T13:14:53.329Z,10
2018-11-25T13:15:53.306Z,10
2018-11-25T13:16:53.331Z,10
2018-11-25T13:17:53.675Z,10
2018-11-25T13:18:53.644Z,5
2018-11-25T13:19:53.132Z,10
2018-11-25T13:20:53.407Z,10
2018-11-25T13:21:53.449Z,10
2018-11-25T13:22:53.489Z,10
2018-11-25T13:23:53.462Z,10
2018-11-25T13:24:53.218Z,10
2018-11-25T13:25:53.267Z,10
2018-11-25T13:26:53.513Z,10
2018-11-25T13:27:53.527Z,10
2018-11-25T13:28:53.825Z,10
2018-11-25T13:29:54.093Z,10
2018-11-25T13:30:53.599Z,10
2018-11-25T13:31:53.877Z,5
2018-11-25T13:32:53.110Z,5
2018-11-25T13:33:53.637Z,5
2018-11-25T13:34:53.666Z,5
2018-11-25T13:35:53.432Z,5
2018-11-25T13:36:54.213Z,5
2018-11-25T13:37:53.460Z,5
2018-11-25T13:38:53.467Z,5
2018-11-25T13:39:53.491Z,5
2018-11-25T13:40:54.147Z,5
2018-11-25T13:41:53.782Z,5
2018-11-25T13:42:53.812Z,5
2018-11-25T13:43:53.825Z,5
2018-11-25T13:44:53.332Z,5
2018-11-25T13:45:53.858Z,5
2018-11-25T13:46:53.885Z,5
2018-11-25T13:47:53.920Z,5
2018-11-25T13:48:54.189Z,5
2018-11-25T13:49:54.001Z,0
2018-11-25T13:50:53.968Z,0
2018-11-25T13:51:53.983Z,0
2018-11-25T13:52:53.989Z,0
2018-11-25T13:53:53.497Z,0
2018-11-25T13:54:54.304Z,0
2018-11-25T13:55:54.041Z,0
2018-11-25T13:56:54.076Z,0
2018-11-25T13:57:54.157Z,0
2018-11-25T13:58:54.113Z,0
2018-11-25T13:59:54.132Z,0
2018-11-25T14:00:53.904Z,0
2018-11-25T14:01:54.436Z,0
2018-11-25T14:02:54.698Z,0
2018-11-25T14:03:53.943Z,0
2018-11-25T14:04:53.950Z,0
2018-11-25T14:06:01.247Z,0
2018-11-25T14:06:54.541Z,5
2018-11-25T14:07:54.280Z,5
2018-11-25T14:08:54.565Z,5
2018-11-25T14:09:53.782Z,5
2018-11-25T14:10:54.335Z,0
2018-11-25T14:11:54.346Z,5
2018-11-25T14:12:54.382Z,0
2018-11-25T14:13:54.133Z,0
2018-11-25T14:14:54.655Z,0
2018-11-25T14:15:54.707Z,0
2018-11-25T14:16:54.436Z,0
2018-11-25T14:17:54.726Z,0
2018-11-25T14:18:54.732Z,0
2018-11-25T14:19:53.985Z,0
2018-11-25T14:20:54.784Z,0
2018-11-25T14:21:54.529Z,0
2018-11-25T14:22:54.824Z,0
2018-11-25T14:23:54.566Z,0
2018-11-25T14:24:54.862Z,0
2018-11-25T14:25:54.615Z,0
2018-11-25T14:26:54.878Z,0
2018-11-25T14:27:55.169Z,0
2018-11-25T14:28:54.417Z,0
2018-11-25T14:29:54.423Z,0
2018-11-25T14:30:54.438Z,0
2018-11-25T14:31:54.714Z,0
2018-11-25T14:32:54.535Z,0
2018-11-25T14:33:54.751Z,0
2018-11-25T14:34:54.783Z,0
2018-11-25T14:35:54.539Z,0
2018-11-25T14:36:54.806Z,0
2018-11-25T14:37:54.582Z,0
2018-11-25T14:38:54.864Z,0